OROVILLE DAM (ORO)

Elevation: 900' · FEATHER R basin · Operator: CA Dept of Water Resources/O & M

Provisional data, subject to change.
Query executed Thursday at 22:24:00   clock

Select a sensor type for a plot of data.
Note: Reservoir Flows are daily averages.

Earlier

Date RES ELE    STORAGE    RES CHG    TOC STO    ABV TOC    OUTFLOW    INFLOW    EVAP    FNF    PPT INC    RAIN    PPTINC4   
 FEET   AF   AF   AF   AF   CFS   CFS   CFS   CFS   INCHES   INCHES   INCHES  
10/29/2014 658.33 963912 -2352 3163000 -2199088 2795 257 30 1008 e 0.00 1.84 0.00
10/30/2014 657.66 959662 -4250 3163000 -2203338 2514 282 7 675 0.00 1.84 0.00
10/31/2014 656.72 953720 -5942 3163000 -2209280 2513 -584 25 855 e 0.44 2.28 0.00
11/01/2014 656.25 950759 -2961 3163000 -2212241 2511 1049 0 855 e 0.68 2.96 0.84
11/02/2014 655.66 947050 -3709 3163000 -2215950 2554 684 0 699 e 0.00 2.96 0.28
11/03/2014 655.07 943352 -3698 3163000 -2219648 2560 799 136 1058 0.00 2.96 0.00
11/04/2014 654.59 940350 -3002 3163000 -2222650 2528 1037 21 897 e 0.00 2.96 0.00
11/05/2014 653.73 934988 -5362 -- -- 2442 -203 28 899 e 0.00 2.96 0.00
11/06/2014 653.68 934677 -311 -- -- 2336 2214 35 815 e 0.00 2.96 0.00
11/07/2014 652.80 929214 -5463 3163000 -2233786 2304 -564 12 897 e 0.00 2.96 0.00
11/08/2014 652.23 925686 -3528 3163000 -2237314 2306 515 19 898 e 0.00 2.96 0.00
11/09/2014 651.88 923525 -2161 3163000 -2239475 2153 802 18 564 0.00 2.96 0.00
11/10/2014 651.11 918782 -4743 3163000 -2244218 2189 142 32 699 e 0.00 2.96 0.00
11/11/2014 650.53 915221 -3561 3163000 -2247779 2209 432 18 815 e 0.00 2.96 0.00
11/12/2014 650.02 912097 -3124 3163000 -2250903 1967 842 18 666 0.00 2.96 0.00
11/13/2014 649.75 910446 -1651 3163000 -2252554 1637 290 9 1767 0.64 3.60 0.44
11/14/2014 649.52 909042 -1404 3163000 -2253958 1611 934 0 1131 0.00 3.60 0.20
11/15/2014 649.53 909103 61 3163000 -2253897 1610 606 11 832 e 0.00 3.60 0.00
11/16/2014 649.54 909163 60 3163000 -2253837 1611 552 16 832 e 0.00 3.60 0.00
11/17/2014 648.72 904167 -4996 3163000 -2258833 828 458 59 832 e 0.00 3.60 0.00
11/18/2014 648.48 902708 -1459 -- -- 845 321 27 254 0.00 3.60 0.00
11/19/2014 648.05 900099 -2609 -- -- 1680 374 9 736 0.32 3.92 0.00
11/20/2014 647.93 899371 -728 3163000 -2263629 1630 1301 7 1616 0.20 4.12 0.38
11/21/2014 647.74 898221 -1150 -- -- 1506 937 11 758 0.04 4.16 0.20
11/22/2014 648.30 901615 3394 -- -- 1257 2976 7 4299 0.76 4.92 0.56
11/23/2014 648.60 903437 1822 -- -- 1174 2073 11 1987 0.00 4.92 0.24
11/24/2014 648.69 903985 548 -- -- 1173 1449 0 1174 0.00 4.92 0.00
11/25/2014 648.76 904410 426 3163000 -2258590 1173 1110 29 -- 0.00 4.92 0.00
11/26/2014 648.95 905567 1156 3163000 -2257433 880 1347 7 -- 0.00 4.92 0.00
11/27/2014 -- -- -- -- -- -- -- -- -- -- -- 0.00

Later | Latest

Warning! This data is preliminary and subject to revision.

Show ORO Map | Plot ORO Data | 1 Month ORO Data | Real-Time ORO Data | ORO Info